createdAt,value
2022-12-02T00:00:58.618Z,18.57
2022-12-02T00:03:25.843Z,19.47
2022-12-02T00:05:55.407Z,21.03
2022-12-02T00:08:31.505Z,19.30
2022-12-02T00:11:01.134Z,18.73
2022-12-02T00:13:44.129Z,20.63
2022-12-02T00:16:22.736Z,19.10
2022-12-02T00:18:50.795Z,19.20
2022-12-02T00:21:18.115Z,20.63
2022-12-02T00:23:44.939Z,20.13
2022-12-02T00:26:14.768Z,18.40
2022-12-02T00:28:41.558Z,19.03
2022-12-02T00:31:08.703Z,18.83
2022-12-02T00:33:36.057Z,17.70
2022-12-02T00:36:02.918Z,20.33
2022-12-02T00:38:29.718Z,21.23
2022-12-02T00:40:56.529Z,19.80
2022-12-02T00:43:45.015Z,19.40
2022-12-02T00:46:30.498Z,19.00
2022-12-02T00:49:04.853Z,18.47
2022-12-02T00:53:58.733Z,19.20
2022-12-02T00:56:25.537Z,20.33
2022-12-02T00:58:52.414Z,21.57
2022-12-02T01:01:19.332Z,21.83
2022-12-02T01:03:46.447Z,19.97
2022-12-02T01:06:14.252Z,19.77
2022-12-02T01:08:41.385Z,20.10
2022-12-02T01:11:08.282Z,20.67
2022-12-02T01:13:35.096Z,20.73
2022-12-02T01:16:02.112Z,21.50
2022-12-02T01:18:29.158Z,21.80
2022-12-02T01:20:56.031Z,22.37
2022-12-02T01:23:22.888Z,22.67
2022-12-02T01:25:49.727Z,21.40
2022-12-02T01:28:17.225Z,21.23
2022-12-02T01:30:44.236Z,22.10
2022-12-02T01:33:11.356Z,20.67
2022-12-02T01:35:38.320Z,20.97
2022-12-02T01:38:05.275Z,21.90
2022-12-02T01:40:32.425Z,20.50
2022-12-02T01:42:59.408Z,20.60
2022-12-02T01:45:26.426Z,21.53
2022-12-02T01:47:53.435Z,22.17
2022-12-02T01:50:20.321Z,22.60
2022-12-02T01:52:47.374Z,22.33
2022-12-02T01:55:19.738Z,22.03
2022-12-02T01:57:46.582Z,22.63
2022-12-02T02:00:14.197Z,22.83
2022-12-02T02:02:41.415Z,19.30
2022-12-02T02:05:17.474Z,19.03
2022-12-02T02:07:47.051Z,22.03
2022-12-02T02:10:13.996Z,21.87
2022-12-02T02:12:40.928Z,20.47
2022-12-02T02:15:09.734Z,23.53
2022-12-02T02:17:36.593Z,20.40
2022-12-02T02:20:05.990Z,19.77
2022-12-02T02:22:53.529Z,22.77
2022-12-02T02:25:20.936Z,21.20
2022-12-02T02:27:53.326Z,21.70
2022-12-02T02:30:20.574Z,22.20
2022-12-02T02:32:48.337Z,21.67
2022-12-02T02:35:16.094Z,22.20
2022-12-02T02:37:43.277Z,21.70
2022-12-02T02:40:11.566Z,21.63
2022-12-02T02:42:38.475Z,21.20
2022-12-02T02:45:05.844Z,22.33
2022-12-02T02:47:32.817Z,22.67
2022-12-02T02:49:59.632Z,22.07
2022-12-02T02:52:26.454Z,19.43
2022-12-02T02:54:53.468Z,22.33
2022-12-02T02:57:20.451Z,24.13
2022-12-02T02:59:49.773Z,22.03
2022-12-02T03:02:16.692Z,20.40
2022-12-02T03:04:43.967Z,20.93
2022-12-02T03:07:11.124Z,23.23
2022-12-02T03:09:38.112Z,24.27
2022-12-02T03:12:05.572Z,20.00
2022-12-02T03:14:32.387Z,22.30
2022-12-02T03:17:01.399Z,22.37
2022-12-02T03:19:30.773Z,21.60
2022-12-02T03:21:58.105Z,22.17
2022-12-02T03:24:24.931Z,20.80
2022-12-02T03:26:51.982Z,24.00
2022-12-02T03:29:19.254Z,21.60
2022-12-02T03:31:46.454Z,22.17
2022-12-02T03:34:13.669Z,24.30
2022-12-02T03:36:41.074Z,21.97
2022-12-02T03:39:08.344Z,22.93
2022-12-02T03:41:35.134Z,22.23
2022-12-02T03:44:01.937Z,22.77
2022-12-02T03:46:29.439Z,23.10
2022-12-02T03:48:56.650Z,22.97
2022-12-02T03:51:23.533Z,21.43
2022-12-02T03:53:50.384Z,23.47
2022-12-02T03:56:17.256Z,22.20
2022-12-02T03:58:51.868Z,21.50
2022-12-02T04:01:20.326Z,20.40
2022-12-02T04:03:47.176Z,20.93
2022-12-02T04:06:14.673Z,21.10
2022-12-02T04:08:41.542Z,22.37
2022-12-02T04:11:08.338Z,23.50
2022-12-02T04:13:35.153Z,19.40
2022-12-02T04:16:02.140Z,20.70
2022-12-02T04:18:29.161Z,20.03
2022-12-02T04:20:56.022Z,20.97
2022-12-02T04:23:22.852Z,21.20
2022-12-02T04:25:49.779Z,19.83
2022-12-02T04:28:16.618Z,20.93
2022-12-02T04:30:43.480Z,19.23
2022-12-02T04:33:10.545Z,19.50
2022-12-02T04:35:37.378Z,18.67
2022-12-02T04:38:10.267Z,17.37
2022-12-02T04:40:38.811Z,17.93
2022-12-02T04:43:05.680Z,19.70
2022-12-02T04:45:33.073Z,19.27
2022-12-02T04:47:59.866Z,18.70
2022-12-02T04:50:26.667Z,17.33
2022-12-02T04:52:53.523Z,16.97
2022-12-02T04:55:20.312Z,15.60
2022-12-02T04:57:47.197Z,16.73
2022-12-02T05:00:14.911Z,17.50
2022-12-02T05:02:41.963Z,17.40
2022-12-02T05:05:09.115Z,15.70
2022-12-02T05:07:36.044Z,15.40
2022-12-02T05:10:03.997Z,15.93
2022-12-02T05:12:30.989Z,16.83
2022-12-02T05:14:57.972Z,17.83
2022-12-02T05:17:24.888Z,15.33
2022-12-02T05:19:51.803Z,17.37
2022-12-02T05:22:18.663Z,16.13
2022-12-02T05:24:48.310Z,16.57
2022-12-02T05:27:15.815Z,15.70
2022-12-02T05:29:42.745Z,17.97
2022-12-02T05:32:09.582Z,16.87
2022-12-02T05:34:36.390Z,15.23
2022-12-02T05:37:03.740Z,17.33
2022-12-02T05:39:30.548Z,16.73
2022-12-02T05:42:03.167Z,15.90
2022-12-02T05:44:33.855Z,15.03
2022-12-02T05:47:14.271Z,15.27
2022-12-02T05:49:42.525Z,14.73
2022-12-02T05:52:21.399Z,16.37
2022-12-02T05:54:48.430Z,15.90
2022-12-02T05:57:27.794Z,15.67
2022-12-02T06:00:18.471Z,16.00
2022-12-02T06:02:50.820Z,15.67
2022-12-02T06:05:24.530Z,15.40
2022-12-02T06:07:59.564Z,18.27
2022-12-02T06:10:32.306Z,14.30
2022-12-02T06:13:09.908Z,15.13
2022-12-02T06:15:38.439Z,15.63
2022-12-02T06:18:18.155Z,14.70
2022-12-02T06:20:46.407Z,15.43
2022-12-02T06:23:17.076Z,13.90
2022-12-02T06:25:44.831Z,16.70
2022-12-02T06:28:23.137Z,15.03
2022-12-02T06:30:50.013Z,15.30
2022-12-02T06:33:29.464Z,14.20
2022-12-02T06:35:57.726Z,16.23
2022-12-02T06:38:30.919Z,15.33
2022-12-02T06:41:00.145Z,16.43
2022-12-02T06:43:30.361Z,15.40
2022-12-02T06:45:57.698Z,14.67
2022-12-02T06:48:34.498Z,15.13
2022-12-02T06:51:12.205Z,14.43
2022-12-02T06:53:39.935Z,14.67
2022-12-02T06:56:28.657Z,15.77
2022-12-02T06:59:00.992Z,15.20
2022-12-02T07:01:27.776Z,15.67
2022-12-02T07:04:05.509Z,14.47
2022-12-02T07:06:33.180Z,15.27
2022-12-02T07:09:25.573Z,14.30
2022-12-02T07:11:55.485Z,14.80
2022-12-02T07:14:26.361Z,15.20
2022-12-02T07:17:00.947Z,13.70
2022-12-02T07:19:37.471Z,14.90
2022-12-02T07:22:13.350Z,14.07
2022-12-02T07:24:40.389Z,15.03
2022-12-02T07:27:16.696Z,13.47
2022-12-02T07:29:43.537Z,12.43
2022-12-02T07:32:10.348Z,14.97
2022-12-02T07:34:37.139Z,15.40
2022-12-02T07:37:03.920Z,14.80
2022-12-02T07:39:31.256Z,15.07
2022-12-02T07:41:58.067Z,16.07
2022-12-02T07:44:24.844Z,14.83
2022-12-02T12:03:12.544Z,9.43
2022-12-02T12:05:41.254Z,9.67
2022-12-02T12:08:08.523Z,11.80
2022-12-02T12:10:38.058Z,10.10
2022-12-02T12:13:56.504Z,10.00
2022-12-02T12:16:28.851Z,10.53
2022-12-02T12:19:00.189Z,10.73
2022-12-02T12:21:35.725Z,11.15
2022-12-02T12:24:23.846Z,10.93
2022-12-02T12:26:57.974Z,11.10
2022-12-02T12:29:28.060Z,11.30
2022-12-02T12:31:55.265Z,10.67
2022-12-02T12:34:22.606Z,12.30
2022-12-02T12:36:49.668Z,10.83
2022-12-02T12:39:17.686Z,11.30
2022-12-02T12:42:01.441Z,12.63
2022-12-02T12:44:31.913Z,12.45
2022-12-02T12:47:07.914Z,11.73
2022-12-02T12:49:38.260Z,11.27
2022-12-02T12:52:08.730Z,12.07
2022-12-02T12:54:36.224Z,12.43
2022-12-02T12:57:03.337Z,12.43
2022-12-02T12:59:30.908Z,12.40
2022-12-02T13:02:03.484Z,14.47
2022-12-02T13:04:30.459Z,13.53
2022-12-02T13:06:58.274Z,13.63
2022-12-02T13:09:25.281Z,12.33
2022-12-02T13:11:53.241Z,12.80
2022-12-02T13:14:20.481Z,13.23
2022-12-02T13:16:50.184Z,12.87
2022-12-02T13:19:20.036Z,13.80
2022-12-02T13:21:46.942Z,12.83
2022-12-02T13:24:15.945Z,14.27
2022-12-02T13:26:43.461Z,12.83
2022-12-02T13:29:10.345Z,12.83
2022-12-02T13:31:37.613Z,14.83
2022-12-02T13:34:05.269Z,14.37
2022-12-02T13:36:32.278Z,14.00
2022-12-02T13:39:05.728Z,13.43
2022-12-02T13:41:33.424Z,14.57
2022-12-02T13:44:00.321Z,16.03
2022-12-02T13:46:27.459Z,15.87
2022-12-02T13:48:54.526Z,15.47
2022-12-02T13:51:21.541Z,14.73
2022-12-02T13:53:48.556Z,13.90
2022-12-02T13:56:15.479Z,15.80
2022-12-02T13:58:42.529Z,15.33
2022-12-02T14:01:09.480Z,15.13
2022-12-02T14:03:37.000Z,15.37
2022-12-02T14:06:03.935Z,15.07
2022-12-02T14:08:30.910Z,15.80
2022-12-02T14:10:57.841Z,16.33
2022-12-02T14:13:25.691Z,15.00
2022-12-02T14:15:52.707Z,15.93
2022-12-02T14:18:19.583Z,14.63
2022-12-02T14:20:46.668Z,17.50
2022-12-02T14:23:13.855Z,15.37
2022-12-02T14:25:40.814Z,15.87
2022-12-02T14:28:07.744Z,15.57
2022-12-02T14:30:36.952Z,15.27
2022-12-02T14:33:03.835Z,16.23
2022-12-02T14:35:30.733Z,17.47
2022-12-02T14:37:57.636Z,17.20
2022-12-02T14:40:24.648Z,17.57
2022-12-02T14:42:51.580Z,17.80
2022-12-02T14:45:18.590Z,19.97
2022-12-02T14:47:45.600Z,19.70
2022-12-02T14:50:14.748Z,18.97
2022-12-02T14:52:44.725Z,18.83
2022-12-02T14:55:11.735Z,24.87
2022-12-02T14:57:38.649Z,24.60
2022-12-02T15:00:06.254Z,17.57
2022-12-02T15:02:33.287Z,17.80
2022-12-02T15:05:00.377Z,16.43
2022-12-02T15:07:27.437Z,16.00
2022-12-02T15:09:54.477Z,16.30
2022-12-02T15:12:21.382Z,15.30
2022-12-02T15:14:48.912Z,17.57
2022-12-02T15:17:16.015Z,15.80
2022-12-02T15:19:43.041Z,14.43
2022-12-02T15:22:10.119Z,14.27
2022-12-02T15:24:37.037Z,16.17
2022-12-02T15:27:09.151Z,16.80
2022-12-02T15:29:36.327Z,18.03
2022-12-02T15:32:03.752Z,66.47
2022-12-02T15:34:30.672Z,23.90
2022-12-02T15:36:57.612Z,16.67
2022-12-02T15:39:24.596Z,17.87
2022-12-02T15:41:51.595Z,17.80
2022-12-02T15:44:20.520Z,17.73
2022-12-02T15:46:47.481Z,17.07
2022-12-02T15:49:14.457Z,17.57
2022-12-02T15:51:41.383Z,18.10
2022-12-02T15:54:08.459Z,18.03
2022-12-02T15:56:35.504Z,17.73
2022-12-02T15:59:02.592Z,17.87
2022-12-02T16:01:32.969Z,17.27
2022-12-02T16:03:59.898Z,17.80
2022-12-02T16:06:26.836Z,19.17
2022-12-02T16:08:55.819Z,18.00
2022-12-02T16:11:23.072Z,17.13
2022-12-02T16:13:52.419Z,17.87
2022-12-02T16:16:19.560Z,19.03
2022-12-02T16:18:46.388Z,18.67
2022-12-02T16:21:13.164Z,21.60
2022-12-02T16:23:39.946Z,17.63
2022-12-02T16:26:06.978Z,19.57
2022-12-02T16:28:33.838Z,19.30
2022-12-02T16:31:00.685Z,19.00
2022-12-02T16:33:27.633Z,19.57
2022-12-02T16:35:54.502Z,17.83
2022-12-02T16:38:21.321Z,22.70
2022-12-02T16:40:48.139Z,20.27
2022-12-02T16:43:14.984Z,20.07
2022-12-02T16:45:41.995Z,18.97
2022-12-02T16:48:10.104Z,19.20
2022-12-02T16:50:37.151Z,20.40
2022-12-02T16:53:05.692Z,19.10
2022-12-02T16:55:32.544Z,19.37
2022-12-02T16:57:59.558Z,17.60
2022-12-02T17:00:26.351Z,16.53
2022-12-02T17:02:53.335Z,19.97
2022-12-02T17:05:20.229Z,21.97
2022-12-02T17:07:47.152Z,18.53
2022-12-02T17:10:14.315Z,18.93
2022-12-02T17:12:41.151Z,20.23
2022-12-02T17:15:09.429Z,20.93
2022-12-02T17:17:51.615Z,21.10
2022-12-02T17:20:18.498Z,17.47
2022-12-02T17:22:45.341Z,20.07
2022-12-02T17:25:13.206Z,19.47
2022-12-02T17:27:40.438Z,19.83
2022-12-02T17:30:08.240Z,20.97
2022-12-02T17:32:35.080Z,20.83
2022-12-02T17:35:01.983Z,19.30
2022-12-02T17:37:28.777Z,19.47
2022-12-02T17:39:55.580Z,19.87
2022-12-02T17:42:22.427Z,19.53
2022-12-02T17:44:49.325Z,19.83
2022-12-02T17:47:16.265Z,21.93
2022-12-02T17:49:43.073Z,19.27
2022-12-02T17:52:25.119Z,20.90
2022-12-02T17:54:52.300Z,20.43
2022-12-02T17:57:19.359Z,19.67
2022-12-02T17:59:46.129Z,30.77
2022-12-02T18:02:13.239Z,20.57
2022-12-02T18:04:44.532Z,19.43
2022-12-02T18:07:12.168Z,20.80
2022-12-02T18:09:39.547Z,20.80
2022-12-02T18:12:07.194Z,22.30
2022-12-02T18:14:34.329Z,24.53
2022-12-02T18:17:01.476Z,25.83
2022-12-02T18:19:28.522Z,20.63
2022-12-02T18:21:55.464Z,19.07
2022-12-02T18:24:22.390Z,19.03
2022-12-02T18:26:49.584Z,19.77
2022-12-02T18:29:16.508Z,19.47
2022-12-02T18:31:43.387Z,21.03
2022-12-02T18:34:10.389Z,20.43
2022-12-02T18:36:37.270Z,20.40
2022-12-02T18:39:04.261Z,20.43
2022-12-02T18:41:31.117Z,19.13
2022-12-02T18:43:57.962Z,19.17
2022-12-02T18:46:25.107Z,20.33
2022-12-02T18:48:51.984Z,19.47
2022-12-02T18:51:18.937Z,18.23
2022-12-02T18:53:45.758Z,19.30
2022-12-02T18:56:12.661Z,19.57
2022-12-02T18:58:42.583Z,18.83
2022-12-02T19:01:09.520Z,17.90
2022-12-02T19:03:36.459Z,19.27
2022-12-02T19:06:03.347Z,18.60
2022-12-02T19:08:30.125Z,19.40
2022-12-02T19:10:56.993Z,18.73
2022-12-02T19:13:23.856Z,20.47
2022-12-02T19:15:50.836Z,20.13
2022-12-02T19:18:17.781Z,21.03
2022-12-02T19:20:44.728Z,19.00
2022-12-02T19:23:11.543Z,21.40
2022-12-02T19:25:44.910Z,20.17
2022-12-02T19:30:39.488Z,18.10
2022-12-02T19:33:06.625Z,19.70
2022-12-02T19:35:33.605Z,20.27
2022-12-02T19:38:05.054Z,19.47
2022-12-02T19:40:41.022Z,19.53
2022-12-02T19:43:11.257Z,18.90
2022-12-02T19:45:38.046Z,20.17
2022-12-02T19:48:05.153Z,18.80
2022-12-02T19:50:32.130Z,21.47
2022-12-02T19:52:58.995Z,18.57
2022-12-02T19:55:25.794Z,21.50
2022-12-02T19:57:52.774Z,20.63
2022-12-02T20:00:20.602Z,21.27
2022-12-02T20:02:47.552Z,20.93
2022-12-02T20:05:17.133Z,19.20
2022-12-02T20:07:44.444Z,20.50
2022-12-02T20:10:11.793Z,19.87
2022-12-02T20:12:38.816Z,19.57
2022-12-02T20:15:06.366Z,18.27
2022-12-02T20:17:36.054Z,20.03
2022-12-02T20:20:04.803Z,19.97
2022-12-02T20:22:31.754Z,20.03
2022-12-02T20:24:58.583Z,20.40
2022-12-02T20:27:25.392Z,22.40
2022-12-02T20:29:52.273Z,19.60
2022-12-02T20:32:19.302Z,20.73
2022-12-02T20:34:46.272Z,20.73
2022-12-02T20:37:16.298Z,21.37
2022-12-02T20:39:43.308Z,19.60
2022-12-02T20:42:10.301Z,22.03
2022-12-02T20:44:37.149Z,19.97
2022-12-02T20:47:04.132Z,17.93
2022-12-02T20:49:31.155Z,21.00
2022-12-02T20:51:58.132Z,21.00
2022-12-02T20:54:26.026Z,20.00
2022-12-02T20:56:53.003Z,21.70
2022-12-02T20:59:19.815Z,21.27
2022-12-02T21:01:46.749Z,22.00
2022-12-02T21:04:13.665Z,21.63
2022-12-02T21:06:40.599Z,21.70
2022-12-02T21:09:07.514Z,20.87
2022-12-02T21:11:34.368Z,19.37
2022-12-02T21:14:01.412Z,22.77
2022-12-02T21:16:28.361Z,22.07
2022-12-02T21:18:55.202Z,20.03
2022-12-02T21:21:22.091Z,20.13
2022-12-02T21:23:48.836Z,20.53
2022-12-02T21:26:15.789Z,21.50
2022-12-02T21:28:42.571Z,23.23
2022-12-02T21:31:09.493Z,20.43
2022-12-02T21:33:36.413Z,20.07
2022-12-02T21:36:03.338Z,21.97
2022-12-02T21:38:30.884Z,23.17
2022-12-02T21:40:57.756Z,20.47
2022-12-02T21:43:27.393Z,21.43
2022-12-02T21:45:54.494Z,20.43
2022-12-02T21:48:21.357Z,22.20
2022-12-02T21:50:48.653Z,20.37
2022-12-02T21:53:15.603Z,21.00
2022-12-02T21:55:42.487Z,22.30
2022-12-02T21:58:09.284Z,21.30
2022-12-02T22:00:36.170Z,20.50
2022-12-02T22:03:03.737Z,21.43
2022-12-02T22:05:34.853Z,22.43
2022-12-02T22:08:01.745Z,20.13
2022-12-02T22:10:28.665Z,23.90
2022-12-02T22:12:55.745Z,21.97
2022-12-02T22:15:22.808Z,20.83
2022-12-02T22:17:49.690Z,22.93
2022-12-02T22:20:18.004Z,21.73
2022-12-02T22:22:45.053Z,21.27
2022-12-02T22:25:11.936Z,22.97
2022-12-02T22:27:38.733Z,22.73
2022-12-02T22:30:07.042Z,23.33
2022-12-02T22:32:35.107Z,22.40
2022-12-02T22:35:02.919Z,21.57
2022-12-02T22:37:29.753Z,21.93
2022-12-02T22:39:56.575Z,23.70
2022-12-02T22:42:24.053Z,23.60
2022-12-02T22:44:51.615Z,22.83
2022-12-02T22:47:18.616Z,20.93
2022-12-02T22:49:45.880Z,22.13
2022-12-02T22:52:12.955Z,24.97
2022-12-02T22:54:39.986Z,22.33
2022-12-02T22:57:07.787Z,22.37
2022-12-02T22:59:34.580Z,22.23
2022-12-02T23:02:01.541Z,22.60
2022-12-02T23:04:28.589Z,23.13
2022-12-02T23:06:55.393Z,22.70
2022-12-02T23:09:22.261Z,23.70
2022-12-02T23:11:52.123Z,23.67
2022-12-02T23:14:18.996Z,21.17
2022-12-02T23:16:45.825Z,23.27
2022-12-02T23:19:12.685Z,22.47
2022-12-02T23:21:39.624Z,23.47
2022-12-02T23:24:06.921Z,23.20
2022-12-02T23:26:33.867Z,21.50
2022-12-02T23:29:01.075Z,23.67
2022-12-02T23:31:30.328Z,23.67
2022-12-02T23:34:00.130Z,22.60
2022-12-02T23:36:34.892Z,23.80
2022-12-02T23:39:02.121Z,24.13
2022-12-02T23:41:31.265Z,23.07
2022-12-02T23:43:58.114Z,23.50
2022-12-02T23:46:25.033Z,22.03
2022-12-02T23:48:51.997Z,22.03
2022-12-02T23:51:22.420Z,22.57
2022-12-02T23:53:53.983Z,22.47
2022-12-02T23:56:20.858Z,23.47
2022-12-02T23:58:47.699Z,23.43
